sensor_id;sensor_type;location;lat;lon;timestamp;P1;P2;P0
56175;PMS5003;63065;51.082;17.016;2022-10-16T00:02:13;22;19;
56175;PMS5003;63065;51.082;17.016;2022-10-16T00:04:38;19;19;
56175;PMS5003;63065;51.082;17.016;2022-10-16T00:07:04;22;21;
56175;PMS5003;63065;51.082;17.016;2022-10-16T00:09:30;22;22;
56175;PMS5003;63065;51.082;17.016;2022-10-16T00:11:56;21;21;
56175;PMS5003;63065;51.082;17.016;2022-10-16T00:14:21;23;21;
56175;PMS5003;63065;51.082;17.016;2022-10-16T00:16:47;24;22;
56175;PMS5003;63065;51.082;17.016;2022-10-16T00:19:12;21;21;
56175;PMS5003;63065;51.082;17.016;2022-10-16T00:21:37;26;22;
56175;PMS5003;63065;51.082;17.016;2022-10-16T00:24:05;20;19;
56175;PMS5003;63065;51.082;17.016;2022-10-16T00:26:29;23;21;
56175;PMS5003;63065;51.082;17.016;2022-10-16T00:28:54;23;21;
56175;PMS5003;63065;51.082;17.016;2022-10-16T00:31:20;21;20;
56175;PMS5003;63065;51.082;17.016;2022-10-16T00:33:45;23;22;
56175;PMS5003;63065;51.082;17.016;2022-10-16T00:36:11;18;17;
56175;PMS5003;63065;51.082;17.016;2022-10-16T00:38:35;18;18;
56175;PMS5003;63065;51.082;17.016;2022-10-16T00:41:01;16;16;
56175;PMS5003;63065;51.082;17.016;2022-10-16T00:45:51;22;21;
56175;PMS5003;63065;51.082;17.016;2022-10-16T00:48:17;19;18;
56175;PMS5003;63065;51.082;17.016;2022-10-16T00:50:42;19;18;
56175;PMS5003;63065;51.082;17.016;2022-10-16T00:53:07;19;19;
56175;PMS5003;63065;51.082;17.016;2022-10-16T00:55:33;23;19;
56175;PMS5003;63065;51.082;17.016;2022-10-16T00:57:59;19;18;
56175;PMS5003;63065;51.082;17.016;2022-10-16T01:00:25;18;18;
56175;PMS5003;63065;51.082;17.016;2022-10-16T01:02:52;18;18;
56175;PMS5003;63065;51.082;17.016;2022-10-16T01:05:15;22;21;
56175;PMS5003;63065;51.082;17.016;2022-10-16T01:07:43;22;19;
56175;PMS5003;63065;51.082;17.016;2022-10-16T01:10:09;22;20;
56175;PMS5003;63065;51.082;17.016;2022-10-16T01:12:33;21;19;
56175;PMS5003;63065;51.082;17.016;2022-10-16T01:14:58;17;17;
56175;PMS5003;63065;51.082;17.016;2022-10-16T01:17:25;20;19;
56175;PMS5003;63065;51.082;17.016;2022-10-16T01:19:54;18;18;
56175;PMS5003;63065;51.082;17.016;2022-10-16T01:22:14;15;15;
56175;PMS5003;63065;51.082;17.016;2022-10-16T01:24:40;17;15;
56175;PMS5003;63065;51.082;17.016;2022-10-16T01:27:07;16;13;
56175;PMS5003;63065;51.082;17.016;2022-10-16T01:29:32;18;18;
56175;PMS5003;63065;51.082;17.016;2022-10-16T01:31:57;19;18;
56175;PMS5003;63065;51.082;17.016;2022-10-16T01:34:22;16;16;
56175;PMS5003;63065;51.082;17.016;2022-10-16T01:36:48;21;18;
56175;PMS5003;63065;51.082;17.016;2022-10-16T01:39:13;18;17;
56175;PMS5003;63065;51.082;17.016;2022-10-16T01:41:39;20;18;
56175;PMS5003;63065;51.082;17.016;2022-10-16T01:44:04;12;12;
56175;PMS5003;63065;51.082;17.016;2022-10-16T01:46:28;20;17;
56175;PMS5003;63065;51.082;17.016;2022-10-16T01:48:54;23;21;
56175;PMS5003;63065;51.082;17.016;2022-10-16T01:51:19;18;17;
56175;PMS5003;63065;51.082;17.016;2022-10-16T01:53:46;20;19;
56175;PMS5003;63065;51.082;17.016;2022-10-16T01:56:11;19;17;
56175;PMS5003;63065;51.082;17.016;2022-10-16T01:58:37;18;17;
56175;PMS5003;63065;51.082;17.016;2022-10-16T02:01:03;17;16;
56175;PMS5003;63065;51.082;17.016;2022-10-16T02:03:28;17;17;
56175;PMS5003;63065;51.082;17.016;2022-10-16T02:05:54;16;15;
56175;PMS5003;63065;51.082;17.016;2022-10-16T02:08:19;11;11;
56175;PMS5003;63065;51.082;17.016;2022-10-16T02:10:44;18;17;
56175;PMS5003;63065;51.082;17.016;2022-10-16T02:13:10;15;14;
56175;PMS5003;63065;51.082;17.016;2022-10-16T02:15:34;16;16;
56175;PMS5003;63065;51.082;17.016;2022-10-16T02:18:00;21;18;
56175;PMS5003;63065;51.082;17.016;2022-10-16T02:20:25;15;15;
56175;PMS5003;63065;51.082;17.016;2022-10-16T02:22:50;18;15;
56175;PMS5003;63065;51.082;17.016;2022-10-16T02:25:17;11;11;
56175;PMS5003;63065;51.082;17.016;2022-10-16T02:27:43;18;16;
56175;PMS5003;63065;51.082;17.016;2022-10-16T02:30:07;15;14;
56175;PMS5003;63065;51.082;17.016;2022-10-16T02:32:32;17;16;
56175;PMS5003;63065;51.082;17.016;2022-10-16T02:34:58;18;17;
56175;PMS5003;63065;51.082;17.016;2022-10-16T02:37:23;17;17;
56175;PMS5003;63065;51.082;17.016;2022-10-16T02:39:48;16;15;
56175;PMS5003;63065;51.082;17.016;2022-10-16T02:42:14;14;14;
56175;PMS5003;63065;51.082;17.016;2022-10-16T02:44:40;20;18;
56175;PMS5003;63065;51.082;17.016;2022-10-16T02:47:05;26;23;
56175;PMS5003;63065;51.082;17.016;2022-10-16T02:49:30;23;20;
56175;PMS5003;63065;51.082;17.016;2022-10-16T02:51:56;18;18;
56175;PMS5003;63065;51.082;17.016;2022-10-16T02:54:21;20;18;
56175;PMS5003;63065;51.082;17.016;2022-10-16T02:56:47;15;15;
56175;PMS5003;63065;51.082;17.016;2022-10-16T02:59:12;21;18;
56175;PMS5003;63065;51.082;17.016;2022-10-16T03:01:38;20;17;
56175;PMS5003;63065;51.082;17.016;2022-10-16T03:04:04;17;17;
56175;PMS5003;63065;51.082;17.016;2022-10-16T03:06:29;23;20;
56175;PMS5003;63065;51.082;17.016;2022-10-16T03:08:55;15;15;
56175;PMS5003;63065;51.082;17.016;2022-10-16T03:11:20;15;15;
56175;PMS5003;63065;51.082;17.016;2022-10-16T03:13:45;19;18;
56175;PMS5003;63065;51.082;17.016;2022-10-16T03:16:11;19;17;
56175;PMS5003;63065;51.082;17.016;2022-10-16T03:18:37;19;18;
56175;PMS5003;63065;51.082;17.016;2022-10-16T03:21:03;23;19;
56175;PMS5003;63065;51.082;17.016;2022-10-16T03:23:28;21;20;
56175;PMS5003;63065;51.082;17.016;2022-10-16T03:25:53;17;17;
56175;PMS5003;63065;51.082;17.016;2022-10-16T03:28:19;17;17;
56175;PMS5003;63065;51.082;17.016;2022-10-16T03:30:45;16;16;
56175;PMS5003;63065;51.082;17.016;2022-10-16T03:33:10;20;20;
56175;PMS5003;63065;51.082;17.016;2022-10-16T03:35:35;18;17;
56175;PMS5003;63065;51.082;17.016;2022-10-16T03:38:01;22;22;
56175;PMS5003;63065;51.082;17.016;2022-10-16T03:40:27;20;18;
56175;PMS5003;63065;51.082;17.016;2022-10-16T03:42:52;17;15;
56175;PMS5003;63065;51.082;17.016;2022-10-16T03:45:17;25;23;
56175;PMS5003;63065;51.082;17.016;2022-10-16T03:47:43;17;16;
56175;PMS5003;63065;51.082;17.016;2022-10-16T03:50:09;22;19;
56175;PMS5003;63065;51.082;17.016;2022-10-16T03:52:34;20;17;
56175;PMS5003;63065;51.082;17.016;2022-10-16T03:55:00;19;16;
56175;PMS5003;63065;51.082;17.016;2022-10-16T03:57:25;19;16;
56175;PMS5003;63065;51.082;17.016;2022-10-16T03:59:51;16;16;
56175;PMS5003;63065;51.082;17.016;2022-10-16T04:02:16;20;20;
56175;PMS5003;63065;51.082;17.016;2022-10-16T04:04:42;25;23;
56175;PMS5003;63065;51.082;17.016;2022-10-16T04:07:07;15;15;
56175;PMS5003;63065;51.082;17.016;2022-10-16T04:09:33;20;18;
56175;PMS5003;63065;51.082;17.016;2022-10-16T04:11:58;19;19;
56175;PMS5003;63065;51.082;17.016;2022-10-16T04:14:24;24;21;
56175;PMS5003;63065;51.082;17.016;2022-10-16T04:16:49;19;18;
56175;PMS5003;63065;51.082;17.016;2022-10-16T04:19:15;23;22;
56175;PMS5003;63065;51.082;17.016;2022-10-16T04:21:40;18;18;
56175;PMS5003;63065;51.082;17.016;2022-10-16T04:24:06;19;18;
56175;PMS5003;63065;51.082;17.016;2022-10-16T04:26:31;25;22;
56175;PMS5003;63065;51.082;17.016;2022-10-16T04:28:57;23;20;
56175;PMS5003;63065;51.082;17.016;2022-10-16T04:31:22;20;20;
56175;PMS5003;63065;51.082;17.016;2022-10-16T04:33:48;21;18;
56175;PMS5003;63065;51.082;17.016;2022-10-16T04:36:13;19;18;
56175;PMS5003;63065;51.082;17.016;2022-10-16T04:38:38;18;18;
56175;PMS5003;63065;51.082;17.016;2022-10-16T04:41:04;21;20;
56175;PMS5003;63065;51.082;17.016;2022-10-16T04:43:29;19;18;
56175;PMS5003;63065;51.082;17.016;2022-10-16T04:45:55;22;20;
56175;PMS5003;63065;51.082;17.016;2022-10-16T04:48:20;22;22;
56175;PMS5003;63065;51.082;17.016;2022-10-16T04:50:46;22;20;
56175;PMS5003;63065;51.082;17.016;2022-10-16T04:53:11;21;21;
56175;PMS5003;63065;51.082;17.016;2022-10-16T04:55:37;28;25;
56175;PMS5003;63065;51.082;17.016;2022-10-16T04:58:02;22;22;
56175;PMS5003;63065;51.082;17.016;2022-10-16T05:00:27;24;22;
56175;PMS5003;63065;51.082;17.016;2022-10-16T05:02:52;24;21;
56175;PMS5003;63065;51.082;17.016;2022-10-16T05:05:18;24;24;
56175;PMS5003;63065;51.082;17.016;2022-10-16T05:07:43;27;22;
56175;PMS5003;63065;51.082;17.016;2022-10-16T05:10:09;20;20;
56175;PMS5003;63065;51.082;17.016;2022-10-16T05:12:34;23;18;
56175;PMS5003;63065;51.082;17.016;2022-10-16T05:15:01;25;21;
56175;PMS5003;63065;51.082;17.016;2022-10-16T05:17:26;21;20;
56175;PMS5003;63065;51.082;17.016;2022-10-16T05:19:51;21;19;
56175;PMS5003;63065;51.082;17.016;2022-10-16T05:22:17;21;20;
56175;PMS5003;63065;51.082;17.016;2022-10-16T05:24:43;19;19;
56175;PMS5003;63065;51.082;17.016;2022-10-16T05:27:08;18;15;
56175;PMS5003;63065;51.082;17.016;2022-10-16T05:29:34;23;19;
56175;PMS5003;63065;51.082;17.016;2022-10-16T05:31:59;17;16;
56175;PMS5003;63065;51.082;17.016;2022-10-16T05:34:25;19;16;
56175;PMS5003;63065;51.082;17.016;2022-10-16T05:36:51;13;13;
56175;PMS5003;63065;51.082;17.016;2022-10-16T05:39:16;21;19;
56175;PMS5003;63065;51.082;17.016;2022-10-16T05:41:42;14;14;
56175;PMS5003;63065;51.082;17.016;2022-10-16T05:44:07;15;15;
56175;PMS5003;63065;51.082;17.016;2022-10-16T05:46:32;19;15;
56175;PMS5003;63065;51.082;17.016;2022-10-16T05:48:57;19;17;
56175;PMS5003;63065;51.082;17.016;2022-10-16T05:51:22;17;17;
56175;PMS5003;63065;51.082;17.016;2022-10-16T05:53:48;16;16;
56175;PMS5003;63065;51.082;17.016;2022-10-16T05:56:13;16;15;
56175;PMS5003;63065;51.082;17.016;2022-10-16T05:58:39;17;15;
56175;PMS5003;63065;51.082;17.016;2022-10-16T06:01:05;14;14;
56175;PMS5003;63065;51.082;17.016;2022-10-16T06:03:30;22;20;
56175;PMS5003;63065;51.082;17.016;2022-10-16T06:05:56;16;15;
56175;PMS5003;63065;51.082;17.016;2022-10-16T06:08:22;16;16;
56175;PMS5003;63065;51.082;17.016;2022-10-16T06:10:47;18;17;
56175;PMS5003;63065;51.082;17.016;2022-10-16T06:13:13;23;22;
56175;PMS5003;63065;51.082;17.016;2022-10-16T06:15:39;22;22;
56175;PMS5003;63065;51.082;17.016;2022-10-16T06:18:04;24;22;
56175;PMS5003;63065;51.082;17.016;2022-10-16T06:20:30;19;19;
56175;PMS5003;63065;51.082;17.016;2022-10-16T06:22:56;14;14;
56175;PMS5003;63065;51.082;17.016;2022-10-16T06:25:21;19;17;
56175;PMS5003;63065;51.082;17.016;2022-10-16T06:27:46;20;18;
56175;PMS5003;63065;51.082;17.016;2022-10-16T06:30:12;23;18;
56175;PMS5003;63065;51.082;17.016;2022-10-16T06:32:38;17;14;
56175;PMS5003;63065;51.082;17.016;2022-10-16T06:35:04;18;18;
56175;PMS5003;63065;51.082;17.016;2022-10-16T06:37:29;18;16;
56175;PMS5003;63065;51.082;17.016;2022-10-16T06:39:54;17;16;
56175;PMS5003;63065;51.082;17.016;2022-10-16T06:42:20;19;17;
56175;PMS5003;63065;51.082;17.016;2022-10-16T06:44:45;15;13;
56175;PMS5003;63065;51.082;17.016;2022-10-16T06:47:11;12;12;
56175;PMS5003;63065;51.082;17.016;2022-10-16T06:49:36;15;15;
56175;PMS5003;63065;51.082;17.016;2022-10-16T06:52:01;17;15;
56175;PMS5003;63065;51.082;17.016;2022-10-16T06:54:27;18;17;
56175;PMS5003;63065;51.082;17.016;2022-10-16T06:56:52;19;16;
56175;PMS5003;63065;51.082;17.016;2022-10-16T06:59:18;21;16;
56175;PMS5003;63065;51.082;17.016;2022-10-16T07:01:43;15;14;
56175;PMS5003;63065;51.082;17.016;2022-10-16T07:04:09;14;14;
56175;PMS5003;63065;51.082;17.016;2022-10-16T07:06:34;22;21;
56175;PMS5003;63065;51.082;17.016;2022-10-16T07:09:01;15;12;
56175;PMS5003;63065;51.082;17.016;2022-10-16T07:11:25;13;11;
56175;PMS5003;63065;51.082;17.016;2022-10-16T07:13:50;14;13;
56175;PMS5003;63065;51.082;17.016;2022-10-16T07:16:16;14;13;
56175;PMS5003;63065;51.082;17.016;2022-10-16T07:18:42;13;13;
56175;PMS5003;63065;51.082;17.016;2022-10-16T07:21:07;10;9;
56175;PMS5003;63065;51.082;17.016;2022-10-16T07:23:32;11;10;
56175;PMS5003;63065;51.082;17.016;2022-10-16T07:25:58;11;10;
56175;PMS5003;63065;51.082;17.016;2022-10-16T07:28:23;13;12;
56175;PMS5003;63065;51.082;17.016;2022-10-16T07:30:48;10;10;
56175;PMS5003;63065;51.082;17.016;2022-10-16T07:33:14;12;11;
56175;PMS5003;63065;51.082;17.016;2022-10-16T07:38:05;13;11;
56175;PMS5003;63065;51.082;17.016;2022-10-16T07:40:31;10;7;
56175;PMS5003;63065;51.082;17.016;2022-10-16T07:42:56;14;10;
56175;PMS5003;63065;51.082;17.016;2022-10-16T07:45:22;9;9;
56175;PMS5003;63065;51.082;17.016;2022-10-16T07:47:48;12;11;
56175;PMS5003;63065;51.082;17.016;2022-10-16T07:50:13;11;11;
56175;PMS5003;63065;51.082;17.016;2022-10-16T07:52:39;12;12;
56175;PMS5003;63065;51.082;17.016;2022-10-16T07:55:05;9;9;
56175;PMS5003;63065;51.082;17.016;2022-10-16T07:57:30;10;9;
56175;PMS5003;63065;51.082;17.016;2022-10-16T07:59:56;9;8;
56175;PMS5003;63065;51.082;17.016;2022-10-16T08:02:22;10;9;
56175;PMS5003;63065;51.082;17.016;2022-10-16T08:04:47;9;9;
56175;PMS5003;63065;51.082;17.016;2022-10-16T08:07:13;11;8;
56175;PMS5003;63065;51.082;17.016;2022-10-16T08:09:39;6;5;
56175;PMS5003;63065;51.082;17.016;2022-10-16T08:12:04;8;8;
56175;PMS5003;63065;51.082;17.016;2022-10-16T08:14:30;11;8;
56175;PMS5003;63065;51.082;17.016;2022-10-16T08:16:56;10;10;
56175;PMS5003;63065;51.082;17.016;2022-10-16T08:19:21;6;6;
56175;PMS5003;63065;51.082;17.016;2022-10-16T08:21:47;10;9;
56175;PMS5003;63065;51.082;17.016;2022-10-16T08:24:13;11;9;
56175;PMS5003;63065;51.082;17.016;2022-10-16T08:26:39;7;7;
56175;PMS5003;63065;51.082;17.016;2022-10-16T08:29:04;10;8;
56175;PMS5003;63065;51.082;17.016;2022-10-16T08:31:30;7;7;
56175;PMS5003;63065;51.082;17.016;2022-10-16T08:33:56;9;9;
56175;PMS5003;63065;51.082;17.016;2022-10-16T08:36:21;8;8;
56175;PMS5003;63065;51.082;17.016;2022-10-16T08:38:48;7;7;
56175;PMS5003;63065;51.082;17.016;2022-10-16T08:41:20;11;11;
56175;PMS5003;63065;51.082;17.016;2022-10-16T08:43:42;7;6;
56175;PMS5003;63065;51.082;17.016;2022-10-16T08:46:08;12;9;
56175;PMS5003;63065;51.082;17.016;2022-10-16T08:48:31;8;8;
56175;PMS5003;63065;51.082;17.016;2022-10-16T08:50:56;11;10;
56175;PMS5003;63065;51.082;17.016;2022-10-16T08:53:24;7;6;
56175;PMS5003;63065;51.082;17.016;2022-10-16T08:55:49;7;7;
56175;PMS5003;63065;51.082;17.016;2022-10-16T08:58:13;9;7;
56175;PMS5003;63065;51.082;17.016;2022-10-16T09:00:39;10;10;
56175;PMS5003;63065;51.082;17.016;2022-10-16T09:03:06;8;8;
56175;PMS5003;63065;51.082;17.016;2022-10-16T09:07:59;9;9;
56175;PMS5003;63065;51.082;17.016;2022-10-16T09:10:26;9;9;
56175;PMS5003;63065;51.082;17.016;2022-10-16T09:12:49;10;9;
56175;PMS5003;63065;51.082;17.016;2022-10-16T09:15:16;8;8;
56175;PMS5003;63065;51.082;17.016;2022-10-16T09:17:41;8;8;
56175;PMS5003;63065;51.082;17.016;2022-10-16T09:20:13;8;8;
56175;PMS5003;63065;51.082;17.016;2022-10-16T09:22:30;7;6;
56175;PMS5003;63065;51.082;17.016;2022-10-16T09:24:56;8;7;
56175;PMS5003;63065;51.082;17.016;2022-10-16T09:27:21;10;8;
56175;PMS5003;63065;51.082;17.016;2022-10-16T09:29:47;7;6;
56175;PMS5003;63065;51.082;17.016;2022-10-16T09:32:14;11;11;
56175;PMS5003;63065;51.082;17.016;2022-10-16T09:34:40;8;6;
56175;PMS5003;63065;51.082;17.016;2022-10-16T09:37:04;8;7;
56175;PMS5003;63065;51.082;17.016;2022-10-16T09:39:30;9;8;
56175;PMS5003;63065;51.082;17.016;2022-10-16T09:41:55;9;9;
56175;PMS5003;63065;51.082;17.016;2022-10-16T09:44:23;10;10;
56175;PMS5003;63065;51.082;17.016;2022-10-16T09:46:46;11;11;
56175;PMS5003;63065;51.082;17.016;2022-10-16T09:51:38;11;9;
56175;PMS5003;63065;51.082;17.016;2022-10-16T09:56:30;8;8;
56175;PMS5003;63065;51.082;17.016;2022-10-16T09:58:55;9;9;
56175;PMS5003;63065;51.082;17.016;2022-10-16T10:01:20;12;11;
56175;PMS5003;63065;51.082;17.016;2022-10-16T10:03:46;7;7;
56175;PMS5003;63065;51.082;17.016;2022-10-16T10:06:16;9;8;
56175;PMS5003;63065;51.082;17.016;2022-10-16T10:08:37;9;9;
56175;PMS5003;63065;51.082;17.016;2022-10-16T10:11:03;10;10;
56175;PMS5003;63065;51.082;17.016;2022-10-16T10:13:28;7;7;
56175;PMS5003;63065;51.082;17.016;2022-10-16T10:15:54;7;7;
56175;PMS5003;63065;51.082;17.016;2022-10-16T10:18:20;8;8;
56175;PMS5003;63065;51.082;17.016;2022-10-16T10:20:46;9;9;
56175;PMS5003;63065;51.082;17.016;2022-10-16T10:23:20;9;9;
56175;PMS5003;63065;51.082;17.016;2022-10-16T10:25:40;10;10;
56175;PMS5003;63065;51.082;17.016;2022-10-16T10:28:06;8;8;
56175;PMS5003;63065;51.082;17.016;2022-10-16T10:30:30;10;9;
56175;PMS5003;63065;51.082;17.016;2022-10-16T10:33:08;7;7;
56175;PMS5003;63065;51.082;17.016;2022-10-16T10:35:22;7;7;
56175;PMS5003;63065;51.082;17.016;2022-10-16T10:37:51;8;8;
56175;PMS5003;63065;51.082;17.016;2022-10-16T10:40:15;9;7;
56175;PMS5003;63065;51.082;17.016;2022-10-16T10:42:38;6;6;
56175;PMS5003;63065;51.082;17.016;2022-10-16T10:45:11;6;6;
56175;PMS5003;63065;51.082;17.016;2022-10-16T10:47:30;6;6;
56175;PMS5003;63065;51.082;17.016;2022-10-16T10:49:56;4;3;
56175;PMS5003;63065;51.082;17.016;2022-10-16T10:52:26;7;7;
56175;PMS5003;63065;51.082;17.016;2022-10-16T10:54:47;6;5;
56175;PMS5003;63065;51.082;17.016;2022-10-16T10:57:14;8;6;
56175;PMS5003;63065;51.082;17.016;2022-10-16T10:59:43;7;5;
56175;PMS5003;63065;51.082;17.016;2022-10-16T11:02:03;7;7;
56175;PMS5003;63065;51.082;17.016;2022-10-16T11:04:34;6;6;
56175;PMS5003;63065;51.082;17.016;2022-10-16T11:06:55;5;5;
56175;PMS5003;63065;51.082;17.016;2022-10-16T11:09:20;8;7;
56175;PMS5003;63065;51.082;17.016;2022-10-16T11:11:46;8;7;
56175;PMS5003;63065;51.082;17.016;2022-10-16T11:14:13;7;7;
56175;PMS5003;63065;51.082;17.016;2022-10-16T11:16:39;6;6;
56175;PMS5003;63065;51.082;17.016;2022-10-16T11:19:03;6;6;
56175;PMS5003;63065;51.082;17.016;2022-10-16T11:21:28;6;6;
56175;PMS5003;63065;51.082;17.016;2022-10-16T11:23:55;7;7;
56175;PMS5003;63065;51.082;17.016;2022-10-16T11:26:20;6;6;
56175;PMS5003;63065;51.082;17.016;2022-10-16T11:28:46;4;4;
56175;PMS5003;63065;51.082;17.016;2022-10-16T11:31:13;9;7;
56175;PMS5003;63065;51.082;17.016;2022-10-16T11:33:37;6;5;
56175;PMS5003;63065;51.082;17.016;2022-10-16T11:36:04;6;6;
56175;PMS5003;63065;51.082;17.016;2022-10-16T11:38:31;7;5;
56175;PMS5003;63065;51.082;17.016;2022-10-16T11:40:54;9;9;
56175;PMS5003;63065;51.082;17.016;2022-10-16T11:43:20;8;7;
56175;PMS5003;63065;51.082;17.016;2022-10-16T11:45:45;5;5;
56175;PMS5003;63065;51.082;17.016;2022-10-16T11:48:14;7;7;
56175;PMS5003;63065;51.082;17.016;2022-10-16T11:50:38;7;7;
56175;PMS5003;63065;51.082;17.016;2022-10-16T11:53:03;5;5;
56175;PMS5003;63065;51.082;17.016;2022-10-16T11:55:29;8;6;
56175;PMS5003;63065;51.082;17.016;2022-10-16T11:57:53;6;6;
56175;PMS5003;63065;51.082;17.016;2022-10-16T12:00:20;7;7;
56175;PMS5003;63065;51.082;17.016;2022-10-16T12:02:48;11;9;
56175;PMS5003;63065;51.082;17.016;2022-10-16T12:05:14;12;8;
56175;PMS5003;63065;51.082;17.016;2022-10-16T12:07:36;8;8;
56175;PMS5003;63065;51.082;17.016;2022-10-16T12:12:28;7;6;
56175;PMS5003;63065;51.082;17.016;2022-10-16T12:17:23;7;7;
56175;PMS5003;63065;51.082;17.016;2022-10-16T12:19:43;8;8;
56175;PMS5003;63065;51.082;17.016;2022-10-16T12:24:35;9;8;
56175;PMS5003;63065;51.082;17.016;2022-10-16T12:27:01;12;10;
56175;PMS5003;63065;51.082;17.016;2022-10-16T12:29:30;9;9;
56175;PMS5003;63065;51.082;17.016;2022-10-16T12:31:52;11;9;
56175;PMS5003;63065;51.082;17.016;2022-10-16T12:34:21;12;9;
56175;PMS5003;63065;51.082;17.016;2022-10-16T12:36:43;10;9;
56175;PMS5003;63065;51.082;17.016;2022-10-16T12:41:35;10;10;
56175;PMS5003;63065;51.082;17.016;2022-10-16T12:44:00;11;11;
56175;PMS5003;63065;51.082;17.016;2022-10-16T12:48:50;15;14;
56175;PMS5003;63065;51.082;17.016;2022-10-16T12:51:22;15;14;
56175;PMS5003;63065;51.082;17.016;2022-10-16T12:53:42;13;13;
56175;PMS5003;63065;51.082;17.016;2022-10-16T12:56:10;17;17;
56175;PMS5003;63065;51.082;17.016;2022-10-16T12:58:37;15;13;
56175;PMS5003;63065;51.082;17.016;2022-10-16T13:00:58;15;13;
56175;PMS5003;63065;51.082;17.016;2022-10-16T13:03:27;15;15;
56175;PMS5003;63065;51.082;17.016;2022-10-16T13:05:52;14;14;
56175;PMS5003;63065;51.082;17.016;2022-10-16T13:08:21;13;11;
56175;PMS5003;63065;51.082;17.016;2022-10-16T13:10:41;13;13;
56175;PMS5003;63065;51.082;17.016;2022-10-16T13:13:13;15;14;
56175;PMS5003;63065;51.082;17.016;2022-10-16T13:15:35;14;14;
56175;PMS5003;63065;51.082;17.016;2022-10-16T13:17:58;17;14;
56175;PMS5003;63065;51.082;17.016;2022-10-16T13:20:24;17;15;
56175;PMS5003;63065;51.082;17.016;2022-10-16T13:22:50;18;16;
56175;PMS5003;63065;51.082;17.016;2022-10-16T13:25:17;15;15;
56175;PMS5003;63065;51.082;17.016;2022-10-16T13:27:40;15;15;
56175;PMS5003;63065;51.082;17.016;2022-10-16T13:30:09;13;13;
56175;PMS5003;63065;51.082;17.016;2022-10-16T13:32:29;11;11;
56175;PMS5003;63065;51.082;17.016;2022-10-16T13:34:55;17;17;
56175;PMS5003;63065;51.082;17.016;2022-10-16T13:37:21;12;10;
56175;PMS5003;63065;51.082;17.016;2022-10-16T13:39:46;15;14;
56175;PMS5003;63065;51.082;17.016;2022-10-16T13:42:12;13;13;
56175;PMS5003;63065;51.082;17.016;2022-10-16T13:44:39;17;17;
56175;PMS5003;63065;51.082;17.016;2022-10-16T13:47:03;12;10;
56175;PMS5003;63065;51.082;17.016;2022-10-16T13:49:28;12;12;
56175;PMS5003;63065;51.082;17.016;2022-10-16T13:51:54;14;13;
56175;PMS5003;63065;51.082;17.016;2022-10-16T13:54:18;10;10;
56175;PMS5003;63065;51.082;17.016;2022-10-16T13:56:44;14;12;
56175;PMS5003;63065;51.082;17.016;2022-10-16T14:01:35;10;10;
56175;PMS5003;63065;51.082;17.016;2022-10-16T14:04:01;12;12;
56175;PMS5003;63065;51.082;17.016;2022-10-16T14:06:26;11;11;
56175;PMS5003;63065;51.082;17.016;2022-10-16T14:08:55;11;11;
56175;PMS5003;63065;51.082;17.016;2022-10-16T14:11:20;14;12;
56175;PMS5003;63065;51.082;17.016;2022-10-16T14:13:43;16;13;
56175;PMS5003;63065;51.082;17.016;2022-10-16T14:16:09;10;10;
56175;PMS5003;63065;51.082;17.016;2022-10-16T14:18:34;10;10;
56175;PMS5003;63065;51.082;17.016;2022-10-16T14:21:04;14;11;
56175;PMS5003;63065;51.082;17.016;2022-10-16T14:23:29;11;10;
56175;PMS5003;63065;51.082;17.016;2022-10-16T14:25:51;12;11;
56175;PMS5003;63065;51.082;17.016;2022-10-16T14:28:17;13;12;
56175;PMS5003;63065;51.082;17.016;2022-10-16T14:35:34;10;10;
56175;PMS5003;63065;51.082;17.016;2022-10-16T14:38:00;12;12;
56175;PMS5003;63065;51.082;17.016;2022-10-16T14:40:25;12;12;
56175;PMS5003;63065;51.082;17.016;2022-10-16T14:42:50;13;13;
56175;PMS5003;63065;51.082;17.016;2022-10-16T14:45:18;10;10;
56175;PMS5003;63065;51.082;17.016;2022-10-16T14:47:46;12;12;
56175;PMS5003;63065;51.082;17.016;2022-10-16T14:50:07;11;11;
56175;PMS5003;63065;51.082;17.016;2022-10-16T14:52:32;14;14;
56175;PMS5003;63065;51.082;17.016;2022-10-16T14:54:58;10;10;
56175;PMS5003;63065;51.082;17.016;2022-10-16T14:57:25;14;14;
56175;PMS5003;63065;51.082;17.016;2022-10-16T14:59:49;12;12;
56175;PMS5003;63065;51.082;17.016;2022-10-16T15:02:18;11;11;
56175;PMS5003;63065;51.082;17.016;2022-10-16T15:04:40;11;10;
56175;PMS5003;63065;51.082;17.016;2022-10-16T15:07:06;12;12;
56175;PMS5003;63065;51.082;17.016;2022-10-16T15:09:31;12;11;
56175;PMS5003;63065;51.082;17.016;2022-10-16T15:11:57;13;13;
56175;PMS5003;63065;51.082;17.016;2022-10-16T15:14:22;14;12;
56175;PMS5003;63065;51.082;17.016;2022-10-16T15:16:48;16;15;
56175;PMS5003;63065;51.082;17.016;2022-10-16T15:19:13;14;14;
56175;PMS5003;63065;51.082;17.016;2022-10-16T15:21:39;12;12;
56175;PMS5003;63065;51.082;17.016;2022-10-16T15:24:05;13;11;
56175;PMS5003;63065;51.082;17.016;2022-10-16T15:26:30;14;14;
56175;PMS5003;63065;51.082;17.016;2022-10-16T15:28:55;14;14;
56175;PMS5003;63065;51.082;17.016;2022-10-16T15:31:21;12;12;
56175;PMS5003;63065;51.082;17.016;2022-10-16T15:33:49;19;18;
56175;PMS5003;63065;51.082;17.016;2022-10-16T15:36:11;12;11;
56175;PMS5003;63065;51.082;17.016;2022-10-16T15:38:37;17;17;
56175;PMS5003;63065;51.082;17.016;2022-10-16T15:41:02;15;15;
56175;PMS5003;63065;51.082;17.016;2022-10-16T15:43:28;17;16;
56175;PMS5003;63065;51.082;17.016;2022-10-16T15:45:58;14;14;
56175;PMS5003;63065;51.082;17.016;2022-10-16T15:48:18;15;14;
56175;PMS5003;63065;51.082;17.016;2022-10-16T15:50:44;17;14;
56175;PMS5003;63065;51.082;17.016;2022-10-16T15:53:09;17;16;
56175;PMS5003;63065;51.082;17.016;2022-10-16T15:55:35;17;14;
56175;PMS5003;63065;51.082;17.016;2022-10-16T15:58:01;18;17;
56175;PMS5003;63065;51.082;17.016;2022-10-16T16:00:26;17;15;
56175;PMS5003;63065;51.082;17.016;2022-10-16T16:02:52;20;17;
56175;PMS5003;63065;51.082;17.016;2022-10-16T16:05:16;20;18;
56175;PMS5003;63065;51.082;17.016;2022-10-16T16:07:42;17;14;
56175;PMS5003;63065;51.082;17.016;2022-10-16T16:10:09;18;14;
56175;PMS5003;63065;51.082;17.016;2022-10-16T16:12:33;19;18;
56175;PMS5003;63065;51.082;17.016;2022-10-16T16:14:58;19;16;
56175;PMS5003;63065;51.082;17.016;2022-10-16T16:17:24;22;20;
56175;PMS5003;63065;51.082;17.016;2022-10-16T16:19:49;16;16;
56175;PMS5003;63065;51.082;17.016;2022-10-16T16:22:15;12;12;
56175;PMS5003;63065;51.082;17.016;2022-10-16T16:24:41;20;18;
56175;PMS5003;63065;51.082;17.016;2022-10-16T16:27:06;16;15;
56175;PMS5003;63065;51.082;17.016;2022-10-16T16:29:31;18;16;